sensor_id;sensor_type;location;lat;lon;timestamp;pressure;altitude;pressure_sealevel;temperature;humidity
2841;BME280;53423;49.224;12.074;2022-10-22T00:01:17;97515.88;;;13.37;72.70
2841;BME280;53423;49.224;12.074;2022-10-22T00:03:45;97517.47;;;13.32;72.39
2841;BME280;53423;49.224;12.074;2022-10-22T00:06:13;97518.19;;;13.26;73.12
2841;BME280;53423;49.224;12.074;2022-10-22T00:08:41;97515.94;;;13.23;73.06
2841;BME280;53423;49.224;12.074;2022-10-22T00:11:12;97505.22;;;13.24;73.61
2841;BME280;53423;49.224;12.074;2022-10-22T00:13:41;97508.03;;;13.23;73.48
2841;BME280;53423;49.224;12.074;2022-10-22T00:16:09;97515.09;;;13.22;73.26
2841;BME280;53423;49.224;12.074;2022-10-22T00:18:38;97515.38;;;13.27;73.43
2841;BME280;53423;49.224;12.074;2022-10-22T00:21:06;97515.03;;;13.30;72.82
2841;BME280;53423;49.224;12.074;2022-10-22T00:23:34;97514.91;;;13.24;73.38
2841;BME280;53423;49.224;12.074;2022-10-22T00:26:03;97514.84;;;13.32;72.64
2841;BME280;53423;49.224;12.074;2022-10-22T00:28:32;97512.59;;;13.29;73.55
2841;BME280;53423;49.224;12.074;2022-10-22T00:31:00;97509.66;;;13.24;73.74
2841;BME280;53423;49.224;12.074;2022-10-22T00:33:29;97510.03;;;13.35;73.01
2841;BME280;53423;49.224;12.074;2022-10-22T00:35:57;97500.78;;;13.25;73.01
2841;BME280;53423;49.224;12.074;2022-10-22T00:38:25;97501.22;;;13.28;73.32
2841;BME280;53423;49.224;12.074;2022-10-22T00:40:53;97507.34;;;13.14;74.02
2841;BME280;53423;49.224;12.074;2022-10-22T00:43:21;97503.25;;;13.12;74.00
2841;BME280;53423;49.224;12.074;2022-10-22T00:45:50;97504.69;;;13.14;73.63
2841;BME280;53423;49.224;12.074;2022-10-22T00:48:21;97489.09;;;13.13;73.50
2841;BME280;53423;49.224;12.074;2022-10-22T00:50:52;97499.63;;;13.13;73.37
2841;BME280;53423;49.224;12.074;2022-10-22T00:53:24;97502.38;;;13.05;74.15
2841;BME280;53423;49.224;12.074;2022-10-22T00:55:53;97495.28;;;13.05;73.34
2841;BME280;53423;49.224;12.074;2022-10-22T00:58:25;97498.63;;;12.99;74.25
2841;BME280;53423;49.224;12.074;2022-10-22T01:00:55;97494.91;;;13.08;73.86
2841;BME280;53423;49.224;12.074;2022-10-22T01:03:23;97493.16;;;13.01;73.75
2841;BME280;53423;49.224;12.074;2022-10-22T01:05:55;97487.25;;;12.99;73.77
2841;BME280;53423;49.224;12.074;2022-10-22T01:08:27;97494.22;;;12.85;74.42
2841;BME280;53423;49.224;12.074;2022-10-22T01:11:07;97497.09;;;13.05;74.11
2841;BME280;53423;49.224;12.074;2022-10-22T01:13:46;97507.44;;;12.92;74.23
2841;BME280;53423;49.224;12.074;2022-10-22T01:16:21;97518.22;;;12.97;73.72
2841;BME280;53423;49.224;12.074;2022-10-22T01:19:00;97504.44;;;12.95;74.34
2841;BME280;53423;49.224;12.074;2022-10-22T01:21:38;97489.09;;;12.84;75.01
2841;BME280;53423;49.224;12.074;2022-10-22T01:24:27;97482.00;;;12.99;74.13
2841;BME280;53423;49.224;12.074;2022-10-22T01:27:08;97492.38;;;13.15;74.05
2841;BME280;53423;49.224;12.074;2022-10-22T01:29:43;97497.06;;;13.19;73.79
2841;BME280;53423;49.224;12.074;2022-10-22T01:32:16;97493.59;;;13.19;74.40
2841;BME280;53423;49.224;12.074;2022-10-22T01:34:48;97501.53;;;13.04;74.30
2841;BME280;53423;49.224;12.074;2022-10-22T01:37:20;97495.38;;;13.12;74.36
2841;BME280;53423;49.224;12.074;2022-10-22T01:39:49;97492.56;;;13.13;74.70
2841;BME280;53423;49.224;12.074;2022-10-22T01:42:18;97497.88;;;13.20;74.80
2841;BME280;53423;49.224;12.074;2022-10-22T01:44:47;97497.78;;;13.28;73.83
2841;BME280;53423;49.224;12.074;2022-10-22T01:47:21;97500.59;;;13.26;74.04
2841;BME280;53423;49.224;12.074;2022-10-22T01:50:07;97500.16;;;13.23;74.51
2841;BME280;53423;49.224;12.074;2022-10-22T01:52:50;97509.06;;;13.22;74.57
2841;BME280;53423;49.224;12.074;2022-10-22T01:55:26;97495.44;;;13.18;74.94
2841;BME280;53423;49.224;12.074;2022-10-22T01:58:02;97497.06;;;13.19;74.96
2841;BME280;53423;49.224;12.074;2022-10-22T02:00:35;97494.88;;;13.23;74.83
2841;BME280;53423;49.224;12.074;2022-10-22T02:03:09;97484.78;;;13.26;74.56
2841;BME280;53423;49.224;12.074;2022-10-22T02:05:48;97490.03;;;13.05;75.47
2841;BME280;53423;49.224;12.074;2022-10-22T02:08:22;97482.91;;;13.20;74.43
2841;BME280;53423;49.224;12.074;2022-10-22T02:10:52;97481.84;;;13.15;74.65
2841;BME280;53423;49.224;12.074;2022-10-22T02:13:24;97474.66;;;13.09;75.21
2841;BME280;53423;49.224;12.074;2022-10-22T02:15:56;97458.03;;;13.23;74.65
2841;BME280;53423;49.224;12.074;2022-10-22T02:18:27;97453.47;;;13.10;75.35
2841;BME280;53423;49.224;12.074;2022-10-22T02:20:57;97459.03;;;13.22;75.02
2841;BME280;53423;49.224;12.074;2022-10-22T02:23:28;97460.09;;;13.27;74.69
2841;BME280;53423;49.224;12.074;2022-10-22T02:26:00;97459.38;;;13.33;75.11
2841;BME280;53423;49.224;12.074;2022-10-22T02:28:36;97462.00;;;13.33;74.49
2841;BME280;53423;49.224;12.074;2022-10-22T02:31:09;97465.81;;;13.31;74.47
2841;BME280;53423;49.224;12.074;2022-10-22T02:33:44;97465.25;;;13.35;74.53
2841;BME280;53423;49.224;12.074;2022-10-22T02:36:14;97474.28;;;13.26;75.07
2841;BME280;53423;49.224;12.074;2022-10-22T02:38:45;97474.84;;;13.22;75.11
2841;BME280;53423;49.224;12.074;2022-10-22T02:41:14;97491.66;;;13.06;76.02
2841;BME280;53423;49.224;12.074;2022-10-22T02:43:44;97502.06;;;13.14;75.34
2841;BME280;53423;49.224;12.074;2022-10-22T02:46:16;97510.78;;;13.15;75.34
2841;BME280;53423;49.224;12.074;2022-10-22T02:48:45;97520.19;;;13.24;75.42
2841;BME280;53423;49.224;12.074;2022-10-22T02:51:13;97520.19;;;13.24;75.45
2841;BME280;53423;49.224;12.074;2022-10-22T02:53:41;97509.84;;;13.22;75.55
2841;BME280;53423;49.224;12.074;2022-10-22T02:56:09;97517.56;;;13.24;75.30
2841;BME280;53423;49.224;12.074;2022-10-22T02:58:37;97527.09;;;13.25;75.74
2841;BME280;53423;49.224;12.074;2022-10-22T03:01:05;97521.09;;;13.31;75.57
2841;BME280;53423;49.224;12.074;2022-10-22T03:03:37;97522.09;;;13.30;75.04
2841;BME280;53423;49.224;12.074;2022-10-22T03:06:05;97514.66;;;13.33;75.49
2841;BME280;53423;49.224;12.074;2022-10-22T03:08:33;97512.03;;;13.19;75.68
2841;BME280;53423;49.224;12.074;2022-10-22T03:11:01;97509.31;;;13.27;75.85
2841;BME280;53423;49.224;12.074;2022-10-22T03:13:29;97492.66;;;13.41;75.28
2841;BME280;53423;49.224;12.074;2022-10-22T03:15:57;97481.00;;;13.29;75.38
2841;BME280;53423;49.224;12.074;2022-10-22T03:18:25;97487.94;;;13.15;76.87
2841;BME280;53423;49.224;12.074;2022-10-22T03:21:00;97484.22;;;13.31;75.82
2841;BME280;53423;49.224;12.074;2022-10-22T03:23:31;97480.88;;;13.37;75.75
2841;BME280;53423;49.224;12.074;2022-10-22T03:25:59;97500.03;;;13.31;75.70
2841;BME280;53423;49.224;12.074;2022-10-22T03:28:28;97501.22;;;13.28;75.55
2841;BME280;53423;49.224;12.074;2022-10-22T03:30:56;97504.69;;;13.29;76.02
2841;BME280;53423;49.224;12.074;2022-10-22T03:33:24;97498.03;;;13.33;75.72
2841;BME280;53423;49.224;12.074;2022-10-22T03:35:52;97498.16;;;13.25;75.86
2841;BME280;53423;49.224;12.074;2022-10-22T03:38:21;97497.69;;;13.21;75.89
2841;BME280;53423;49.224;12.074;2022-10-22T03:40:49;97494.44;;;13.19;76.65
2841;BME280;53423;49.224;12.074;2022-10-22T03:43:17;97485.88;;;13.32;76.22
2841;BME280;53423;49.224;12.074;2022-10-22T03:45:45;97473.22;;;13.42;75.30
2841;BME280;53423;49.224;12.074;2022-10-22T03:48:14;97471.91;;;13.31;76.11
2841;BME280;53423;49.224;12.074;2022-10-22T03:50:42;97490.66;;;13.43;75.46
2841;BME280;53423;49.224;12.074;2022-10-22T03:53:10;97510.16;;;13.48;75.02
2841;BME280;53423;49.224;12.074;2022-10-22T03:55:40;97504.44;;;13.45;75.31
2841;BME280;53423;49.224;12.074;2022-10-22T03:58:08;97513.69;;;13.41;75.65
2841;BME280;53423;49.224;12.074;2022-10-22T04:00:36;97527.88;;;13.40;76.18
2841;BME280;53423;49.224;12.074;2022-10-22T04:03:04;97535.78;;;13.40;76.12
2841;BME280;53423;49.224;12.074;2022-10-22T04:05:33;97545.56;;;13.46;75.87
2841;BME280;53423;49.224;12.074;2022-10-22T04:08:00;97545.22;;;13.49;75.80
2841;BME280;53423;49.224;12.074;2022-10-22T04:10:28;97543.59;;;13.33;76.18
2841;BME280;53423;49.224;12.074;2022-10-22T04:12:58;97551.34;;;13.20;77.17
2841;BME280;53423;49.224;12.074;2022-10-22T04:15:26;97547.63;;;13.00;77.46
2841;BME280;53423;49.224;12.074;2022-10-22T04:17:54;97553.78;;;13.07;77.73
2841;BME280;53423;49.224;12.074;2022-10-22T04:20:22;97554.41;;;12.95;78.66
2841;BME280;53423;49.224;12.074;2022-10-22T04:22:50;97551.41;;;12.98;78.75
2841;BME280;53423;49.224;12.074;2022-10-22T04:25:18;97560.97;;;13.13;78.58
2841;BME280;53423;49.224;12.074;2022-10-22T04:27:46;97556.06;;;13.25;77.70
2841;BME280;53423;49.224;12.074;2022-10-22T04:30:15;97553.56;;;13.38;77.00
2841;BME280;53423;49.224;12.074;2022-10-22T04:32:43;97557.75;;;13.47;76.76
2841;BME280;53423;49.224;12.074;2022-10-22T04:35:11;97563.53;;;13.57;76.40
2841;BME280;53423;49.224;12.074;2022-10-22T04:37:39;97564.81;;;13.46;76.47
2841;BME280;53423;49.224;12.074;2022-10-22T04:40:09;97576.19;;;13.32;76.99
2841;BME280;53423;49.224;12.074;2022-10-22T04:42:37;97559.84;;;13.37;77.12
2841;BME280;53423;49.224;12.074;2022-10-22T04:45:06;97560.81;;;13.50;76.87
2841;BME280;53423;49.224;12.074;2022-10-22T04:47:35;97562.75;;;13.27;77.60
2841;BME280;53423;49.224;12.074;2022-10-22T04:50:05;97563.78;;;13.26;77.35
2841;BME280;53423;49.224;12.074;2022-10-22T04:52:33;97556.47;;;13.43;77.16
2841;BME280;53423;49.224;12.074;2022-10-22T04:55:01;97566.53;;;13.54;76.71
2841;BME280;53423;49.224;12.074;2022-10-22T04:57:29;97572.09;;;13.44;76.50
2841;BME280;53423;49.224;12.074;2022-10-22T04:59:57;97574.44;;;13.54;76.96
2841;BME280;53423;49.224;12.074;2022-10-22T05:02:25;97587.75;;;13.67;75.80
2841;BME280;53423;49.224;12.074;2022-10-22T05:05:19;97597.63;;;13.44;75.72
2841;BME280;53423;49.224;12.074;2022-10-22T05:07:49;97596.25;;;13.33;77.23
2841;BME280;53423;49.224;12.074;2022-10-22T05:10:17;97597.50;;;13.37;77.09
2841;BME280;53423;49.224;12.074;2022-10-22T05:12:45;97591.97;;;13.47;77.19
2841;BME280;53423;49.224;12.074;2022-10-22T05:15:13;97601.88;;;13.45;77.01
2841;BME280;53423;49.224;12.074;2022-10-22T05:17:41;97609.66;;;13.53;76.76
2841;BME280;53423;49.224;12.074;2022-10-22T05:20:10;97611.91;;;13.56;76.76
2841;BME280;53423;49.224;12.074;2022-10-22T05:22:39;97619.47;;;13.44;76.95
2841;BME280;53423;49.224;12.074;2022-10-22T05:25:07;97621.84;;;13.54;76.85
2841;BME280;53423;49.224;12.074;2022-10-22T05:27:35;97609.66;;;13.53;76.78
2841;BME280;53423;49.224;12.074;2022-10-22T05:30:04;97613.56;;;13.57;76.67
2841;BME280;53423;49.224;12.074;2022-10-22T05:32:33;97626.66;;;13.50;77.12
2841;BME280;53423;49.224;12.074;2022-10-22T05:35:02;97627.44;;;13.51;77.05
2841;BME280;53423;49.224;12.074;2022-10-22T05:37:30;97632.72;;;13.51;76.96
2841;BME280;53423;49.224;12.074;2022-10-22T05:39:59;97643.91;;;13.53;76.84
2841;BME280;53423;49.224;12.074;2022-10-22T05:42:47;97644.06;;;13.51;77.04
2841;BME280;53423;49.224;12.074;2022-10-22T05:45:15;97632.94;;;13.35;77.52
2841;BME280;53423;49.224;12.074;2022-10-22T05:47:43;97639.47;;;13.24;77.81
2841;BME280;53423;49.224;12.074;2022-10-22T05:50:11;97641.63;;;13.21;78.23
2841;BME280;53423;49.224;12.074;2022-10-22T05:52:39;97652.47;;;13.40;77.93
2841;BME280;53423;49.224;12.074;2022-10-22T05:55:09;97654.72;;;13.29;78.56
2841;BME280;53423;49.224;12.074;2022-10-22T05:57:38;97656.25;;;13.23;78.30
2841;BME280;53423;49.224;12.074;2022-10-22T06:00:07;97656.06;;;13.39;78.31
2841;BME280;53423;49.224;12.074;2022-10-22T06:02:41;97644.53;;;13.55;77.52
2841;BME280;53423;49.224;12.074;2022-10-22T06:05:09;97624.50;;;13.75;76.80
2841;BME280;53423;49.224;12.074;2022-10-22T06:07:37;97630.53;;;13.69;76.84
2841;BME280;53423;49.224;12.074;2022-10-22T06:10:07;97637.81;;;13.67;76.48
2841;BME280;53423;49.224;12.074;2022-10-22T06:12:37;97643.97;;;13.59;77.23
2841;BME280;53423;49.224;12.074;2022-10-22T06:15:06;97650.78;;;13.68;77.04
2841;BME280;53423;49.224;12.074;2022-10-22T06:17:34;97656.94;;;13.76;76.28
2841;BME280;53423;49.224;12.074;2022-10-22T06:20:03;97669.25;;;13.54;77.24
2841;BME280;53423;49.224;12.074;2022-10-22T06:22:31;97674.41;;;13.62;77.32
2841;BME280;53423;49.224;12.074;2022-10-22T06:24:59;97673.56;;;13.76;76.63
2841;BME280;53423;49.224;12.074;2022-10-22T06:27:27;97668.38;;;13.83;76.34
2841;BME280;53423;49.224;12.074;2022-10-22T06:29:56;97670.72;;;13.92;76.08
2841;BME280;53423;49.224;12.074;2022-10-22T06:32:24;97665.63;;;13.91;75.47
2841;BME280;53423;49.224;12.074;2022-10-22T06:34:52;97660.84;;;13.80;76.41
2841;BME280;53423;49.224;12.074;2022-10-22T06:37:20;97658.56;;;13.77;76.33
2841;BME280;53423;49.224;12.074;2022-10-22T06:39:48;97653.44;;;13.90;75.96
2841;BME280;53423;49.224;12.074;2022-10-22T06:42:16;97665.75;;;13.83;76.15
2841;BME280;53423;49.224;12.074;2022-10-22T06:44:44;97665.84;;;13.74;76.46
2841;BME280;53423;49.224;12.074;2022-10-22T06:47:13;97674.44;;;13.83;76.16
2841;BME280;53423;49.224;12.074;2022-10-22T06:49:41;97674.34;;;13.91;76.20
2841;BME280;53423;49.224;12.074;2022-10-22T06:52:09;97678.75;;;13.84;75.74
2841;BME280;53423;49.224;12.074;2022-10-22T06:54:37;97689.53;;;13.74;75.85
2841;BME280;53423;49.224;12.074;2022-10-22T06:57:05;97692.44;;;13.80;76.07
2841;BME280;53423;49.224;12.074;2022-10-22T06:59:33;97693.72;;;13.84;75.28
2841;BME280;53423;49.224;12.074;2022-10-22T07:02:01;97705.81;;;13.78;76.17
2841;BME280;53423;49.224;12.074;2022-10-22T07:04:31;97711.38;;;13.68;76.45
2841;BME280;53423;49.224;12.074;2022-10-22T07:06:58;97715.56;;;13.78;76.49
2841;BME280;53423;49.224;12.074;2022-10-22T07:09:27;97716.09;;;13.88;76.08
2841;BME280;53423;49.224;12.074;2022-10-22T07:11:55;97722.22;;;13.95;75.63
2841;BME280;53423;49.224;12.074;2022-10-22T07:14:23;97720.88;;;13.99;75.77
2841;BME280;53423;49.224;12.074;2022-10-22T07:16:51;97730.22;;;14.01;75.73
2841;BME280;53423;49.224;12.074;2022-10-22T07:19:44;97736.69;;;13.99;76.31
2841;BME280;53423;49.224;12.074;2022-10-22T07:22:16;97752.56;;;14.05;75.95
2841;BME280;53423;49.224;12.074;2022-10-22T07:24:44;97744.75;;;14.26;75.46
2841;BME280;53423;49.224;12.074;2022-10-22T07:27:12;97755.06;;;14.42;75.05
2841;BME280;53423;49.224;12.074;2022-10-22T07:29:40;97747.53;;;14.60;73.55
2841;BME280;53423;49.224;12.074;2022-10-22T07:32:08;97764.00;;;14.62;74.58
2841;BME280;53423;49.224;12.074;2022-10-22T07:34:36;97763.88;;;14.49;74.59
2841;BME280;53423;49.224;12.074;2022-10-22T07:37:10;97771.28;;;14.39;74.94
2841;BME280;53423;49.224;12.074;2022-10-22T07:39:37;97775.53;;;14.40;74.82
2841;BME280;53423;49.224;12.074;2022-10-22T07:42:05;97785.56;;;14.16;76.35
2841;BME280;53423;49.224;12.074;2022-10-22T07:44:34;97775.59;;;14.47;74.90
2841;BME280;53423;49.224;12.074;2022-10-22T07:47:02;97788.19;;;14.66;73.95
2841;BME280;53423;49.224;12.074;2022-10-22T07:49:29;97793.47;;;14.30;75.76
2841;BME280;53423;49.224;12.074;2022-10-22T07:51:57;97792.19;;;14.41;75.31
2841;BME280;53423;49.224;12.074;2022-10-22T07:54:27;97790.47;;;14.19;76.54
2841;BME280;53423;49.224;12.074;2022-10-22T07:56:55;97796.94;;;14.31;76.60
2841;BME280;53423;49.224;12.074;2022-10-22T07:59:26;97806.84;;;14.29;75.97
2841;BME280;53423;49.224;12.074;2022-10-22T08:01:54;97804.28;;;14.35;75.87
2841;BME280;53423;49.224;12.074;2022-10-22T08:04:22;97793.34;;;14.24;76.56
2841;BME280;53423;49.224;12.074;2022-10-22T08:06:50;97792.22;;;14.26;77.03
2841;BME280;53423;49.224;12.074;2022-10-22T08:09:18;97791.22;;;14.27;75.72
2841;BME280;53423;49.224;12.074;2022-10-22T08:11:47;97785.75;;;14.29;76.93
2841;BME280;53423;49.224;12.074;2022-10-22T08:14:15;97787.56;;;14.28;77.10
2841;BME280;53423;49.224;12.074;2022-10-22T08:16:43;97779.28;;;14.17;77.92
2841;BME280;53423;49.224;12.074;2022-10-22T08:19:12;97792.34;;;14.25;77.74
2841;BME280;53423;49.224;12.074;2022-10-22T08:21:45;97814.44;;;14.38;77.25
2841;BME280;53423;49.224;12.074;2022-10-22T08:24:14;97810.06;;;14.45;76.37
2841;BME280;53423;49.224;12.074;2022-10-22T08:26:42;97819.53;;;14.40;77.31
2841;BME280;53423;49.224;12.074;2022-10-22T08:29:11;97818.06;;;14.52;76.81
2841;BME280;53423;49.224;12.074;2022-10-22T08:31:39;97828.69;;;14.58;75.78
2841;BME280;53423;49.224;12.074;2022-10-22T08:34:07;97812.50;;;14.61;76.29
2841;BME280;53423;49.224;12.074;2022-10-22T08:36:35;97814.56;;;15.02;74.43
2841;BME280;53423;49.224;12.074;2022-10-22T08:39:03;97829.78;;;14.64;75.76
2841;BME280;53423;49.224;12.074;2022-10-22T08:41:33;97824.09;;;14.81;76.64
2841;BME280;53423;49.224;12.074;2022-10-22T08:44:14;97828.66;;;14.73;75.71
2841;BME280;53423;49.224;12.074;2022-10-22T08:47:11;97837.38;;;14.73;75.46
2841;BME280;53423;49.224;12.074;2022-10-22T08:49:47;97828.88;;;14.71;76.81
2841;BME280;53423;49.224;12.074;2022-10-22T08:52:16;97836.72;;;14.86;76.54
2841;BME280;53423;49.224;12.074;2022-10-22T08:54:50;97842.38;;;15.46;74.43
2841;BME280;53423;49.224;12.074;2022-10-22T08:57:30;97827.81;;;15.08;75.43
2841;BME280;53423;49.224;12.074;2022-10-22T09:00:04;97828.94;;;15.41;73.63
2841;BME280;53423;49.224;12.074;2022-10-22T09:02:36;97830.50;;;15.57;73.11
2841;BME280;53423;49.224;12.074;2022-10-22T09:05:19;97826.66;;;15.38;73.61
2841;BME280;53423;49.224;12.074;2022-10-22T09:07:50;97822.38;;;15.58;73.99
2841;BME280;53423;49.224;12.074;2022-10-22T09:10:21;97825.25;;;15.63;73.35
2841;BME280;53423;49.224;12.074;2022-10-22T09:12:51;97820.69;;;15.78;72.58
2841;BME280;53423;49.224;12.074;2022-10-22T09:15:20;97821.31;;;15.80;72.25
2841;BME280;53423;49.224;12.074;2022-10-22T09:17:55;97819.56;;;15.18;74.49
2841;BME280;53423;49.224;12.074;2022-10-22T09:20:30;97828.41;;;16.07;72.20
2841;BME280;53423;49.224;12.074;2022-10-22T09:23:14;97822.47;;;15.44;73.91
2841;BME280;53423;49.224;12.074;2022-10-22T09:25:44;97829.81;;;15.76;74.47
2841;BME280;53423;49.224;12.074;2022-10-22T09:28:12;97834.69;;;15.72;74.92
2841;BME280;53423;49.224;12.074;2022-10-22T09:30:42;97842.16;;;15.96;72.31
2841;BME280;53423;49.224;12.074;2022-10-22T09:33:13;97836.22;;;15.18;76.08
2841;BME280;53423;49.224;12.074;2022-10-22T09:35:51;97846.78;;;15.18;74.50
2841;BME280;53423;49.224;12.074;2022-10-22T09:38:22;97850.88;;;15.00;75.39
2841;BME280;53423;49.224;12.074;2022-10-22T09:40:53;97866.38;;;14.88;75.21
2841;BME280;53423;49.224;12.074;2022-10-22T09:43:21;97873.41;;;14.81;75.79
2841;BME280;53423;49.224;12.074;2022-10-22T09:45:56;97871.50;;;15.11;76.25
2841;BME280;53423;49.224;12.074;2022-10-22T09:48:28;97870.53;;;15.54;75.28
2841;BME280;53423;49.224;12.074;2022-10-22T09:51:05;97874.97;;;15.81;73.27
2841;BME280;53423;49.224;12.074;2022-10-22T09:53:41;97864.66;;;15.58;73.79
2841;BME280;53423;49.224;12.074;2022-10-22T09:56:16;97868.97;;;15.93;71.80
2841;BME280;53423;49.224;12.074;2022-10-22T09:58:48;97866.91;;;16.51;72.30
2841;BME280;53423;49.224;12.074;2022-10-22T10:01:24;97864.63;;;16.95;68.97
2841;BME280;53423;49.224;12.074;2022-10-22T10:03:52;97864.00;;;16.93;69.16
2841;BME280;53423;49.224;12.074;2022-10-22T10:06:22;97863.50;;;17.56;67.58
2841;BME280;53423;49.224;12.074;2022-10-22T10:08:50;97866.56;;;17.66;67.39
2841;BME280;53423;49.224;12.074;2022-10-22T10:11:25;97869.59;;;17.37;65.81
2841;BME280;53423;49.224;12.074;2022-10-22T10:14:03;97872.59;;;17.14;67.00
2841;BME280;53423;49.224;12.074;2022-10-22T10:16:43;97871.16;;;18.49;63.37
2841;BME280;53423;49.224;12.074;2022-10-22T10:19:25;97876.97;;;17.81;64.62
2841;BME280;53423;49.224;12.074;2022-10-22T10:22:02;97889.16;;;18.40;63.69
2841;BME280;53423;49.224;12.074;2022-10-22T10:24:45;97884.97;;;18.71;63.28
2841;BME280;53423;49.224;12.074;2022-10-22T10:27:23;97879.31;;;18.98;60.96
2841;BME280;53423;49.224;12.074;2022-10-22T10:29:57;97880.00;;;18.81;62.12
2841;BME280;53423;49.224;12.074;2022-10-22T10:32:47;97877.75;;;18.84;60.93
2841;BME280;53423;49.224;12.074;2022-10-22T10:35:21;97886.47;;;18.47;62.38
2841;BME280;53423;49.224;12.074;2022-10-22T10:38:01;97872.69;;;17.99;63.84
2841;BME280;53423;49.224;12.074;2022-10-22T10:40:41;97877.81;;;18.71;60.74
2841;BME280;53423;49.224;12.074;2022-10-22T10:43:16;97878.78;;;18.77;61.59
2841;BME280;53423;49.224;12.074;2022-10-22T10:45:52;97872.13;;;19.05;59.86
2841;BME280;53423;49.224;12.074;2022-10-22T10:48:39;97868.56;;;19.55;58.59
2841;BME280;53423;49.224;12.074;2022-10-22T10:51:23;97867.53;;;19.19;59.98
2841;BME280;53423;49.224;12.074;2022-10-22T10:54:13;97856.44;;;19.28;59.42
2841;BME280;53423;49.224;12.074;2022-10-22T10:56:47;97855.59;;;19.65;60.42
2841;BME280;53423;49.224;12.074;2022-10-22T10:59:24;97852.38;;;19.82;57.66
2841;BME280;53423;49.224;12.074;2022-10-22T11:02:12;97844.03;;;19.96;57.08
2841;BME280;53423;49.224;12.074;2022-10-22T11:05:09;97844.16;;;19.83;58.45
2841;BME280;53423;49.224;12.074;2022-10-22T11:07:41;97842.13;;;20.28;55.96
2841;BME280;53423;49.224;12.074;2022-10-22T11:10:26;97850.53;;;20.25;55.40
2841;BME280;53423;49.224;12.074;2022-10-22T11:12:56;97848.81;;;19.88;57.76
2841;BME280;53423;49.224;12.074;2022-10-22T11:15:30;97849.97;;;19.49;57.58
2841;BME280;53423;49.224;12.074;2022-10-22T11:18:07;97846.53;;;19.91;56.84
2841;BME280;53423;49.224;12.074;2022-10-22T11:20:44;97853.22;;;20.00;57.32
2841;BME280;53423;49.224;12.074;2022-10-22T11:23:17;97854.91;;;19.95;58.22
2841;BME280;53423;49.224;12.074;2022-10-22T11:25:51;97853.03;;;19.77;57.11
2841;BME280;53423;49.224;12.074;2022-10-22T11:28:24;97859.88;;;20.16;56.54
2841;BME280;53423;49.224;12.074;2022-10-22T11:30:58;97856.78;;;19.94;56.53
2841;BME280;53423;49.224;12.074;2022-10-22T11:33:43;97843.78;;;22.00;51.92
2841;BME280;53423;49.224;12.074;2022-10-22T11:36:14;97850.59;;;22.54;49.67
2841;BME280;53423;49.224;12.074;2022-10-22T11:38:43;97843.06;;;23.80;46.82
2841;BME280;53423;49.224;12.074;2022-10-22T11:41:13;97833.38;;;24.50;44.44
2841;BME280;53423;49.224;12.074;2022-10-22T11:44:04;97836.47;;;25.07;42.31
2841;BME280;53423;49.224;12.074;2022-10-22T11:46:42;97831.38;;;24.02;44.06
2841;BME280;53423;49.224;12.074;2022-10-22T11:49:22;97833.38;;;23.46;44.90
2841;BME280;53423;49.224;12.074;2022-10-22T11:52:12;97830.28;;;25.59;41.94
2841;BME280;53423;49.224;12.074;2022-10-22T11:54:53;97828.63;;;25.27;42.02
2841;BME280;53423;49.224;12.074;2022-10-22T11:57:25;97835.88;;;26.26;39.89
2841;BME280;53423;49.224;12.074;2022-10-22T11:59:56;97836.28;;;26.03;40.46
2841;BME280;53423;49.224;12.074;2022-10-22T12:02:41;97832.91;;;23.49;44.68
2841;BME280;53423;49.224;12.074;2022-10-22T12:05:32;97837.78;;;23.52;43.45
2841;BME280;53423;49.224;12.074;2022-10-22T12:08:13;97837.06;;;24.06;43.26
2841;BME280;53423;49.224;12.074;2022-10-22T12:10:56;97836.72;;;23.36;44.79
2841;BME280;53423;49.224;12.074;2022-10-22T12:13:27;97832.81;;;22.48;45.77
2841;BME280;53423;49.224;12.074;2022-10-22T12:15:58;97820.00;;;21.87;48.64
2841;BME280;53423;49.224;12.074;2022-10-22T12:18:33;97825.50;;;21.62;49.51
2841;BME280;53423;49.224;12.074;2022-10-22T12:21:02;97832.59;;;20.86;51.18
2841;BME280;53423;49.224;12.074;2022-10-22T12:23:34;97830.28;;;21.08;50.30
2841;BME280;53423;49.224;12.074;2022-10-22T12:26:03;97832.03;;;20.66;52.32
2841;BME280;53423;49.224;12.074;2022-10-22T12:28:37;97826.16;;;20.75;52.18
2841;BME280;53423;49.224;12.074;2022-10-22T12:31:12;97826.13;;;20.64;52.11
2841;BME280;53423;49.224;12.074;2022-10-22T12:33:41;97830.88;;;20.26;53.54
2841;BME280;53423;49.224;12.074;2022-10-22T12:36:14;97819.03;;;20.40;52.69
2841;BME280;53423;49.224;12.074;2022-10-22T12:39:11;97817.09;;;20.11;52.68
2841;BME280;53423;49.224;12.074;2022-10-22T12:41:40;97812.88;;;20.21;52.55
2841;BME280;53423;49.224;12.074;2022-10-22T12:44:11;97811.31;;;20.50;52.70
2841;BME280;53423;49.224;12.074;2022-10-22T12:46:40;97810.03;;;20.23;53.29
2841;BME280;53423;49.224;12.074;2022-10-22T12:49:15;97813.66;;;19.61;53.44
2841;BME280;53423;49.224;12.074;2022-10-22T12:51:45;97815.88;;;19.89;53.83
2841;BME280;53423;49.224;12.074;2022-10-22T12:54:23;97805.84;;;20.45;52.04
2841;BME280;53423;49.224;12.074;2022-10-22T12:56:53;97805.44;;;20.48;53.63
2841;BME280;53423;49.224;12.074;2022-10-22T12:59:24;97817.63;;;21.03;51.83
2841;BME280;53423;49.224;12.074;2022-10-22T13:01:53;97814.19;;;21.26;49.58
2841;BME280;53423;49.224;12.074;2022-10-22T13:04:32;97822.94;;;21.56;50.39
2841;BME280;53423;49.224;12.074;2022-10-22T13:07:12;97815.03;;;21.38;50.14
2841;BME280;53423;49.224;12.074;2022-10-22T13:09:56;97811.00;;;21.06;49.57
2841;BME280;53423;49.224;12.074;2022-10-22T13:12:26;97817.59;;;21.33;51.12
2841;BME280;53423;49.224;12.074;2022-10-22T13:14:54;97812.38;;;20.96;50.67
2841;BME280;53423;49.224;12.074;2022-10-22T13:17:37;97813.09;;;21.04;51.33
2841;BME280;53423;49.224;12.074;2022-10-22T13:20:16;97808.34;;;21.06;52.48
2841;BME280;53423;49.224;12.074;2022-10-22T13:22:55;97811.72;;;21.13;51.21
2841;BME280;53423;49.224;12.074;2022-10-22T13:25:29;97807.00;;;20.67;52.63